sensor_id;sensor_type;location;lat;lon;timestamp;P1;durP1;ratioP1;P2;durP2;ratioP2
15474;SDS011;7839;50.462;9.678;2023-03-15T00:05:29;3.70;;;0.80;;
15474;SDS011;7839;50.462;9.678;2023-03-15T00:12:10;0.80;;;0.80;;
15474;SDS011;7839;50.462;9.678;2023-03-15T00:18:54;0.77;;;0.77;;
15474;SDS011;7839;50.462;9.678;2023-03-15T00:25:34;2.90;;;0.90;;
15474;SDS011;7839;50.462;9.678;2023-03-15T00:32:15;1.20;;;0.60;;
15474;SDS011;7839;50.462;9.678;2023-03-15T00:38:56;3.37;;;0.83;;
15474;SDS011;7839;50.462;9.678;2023-03-15T00:45:36;0.90;;;0.77;;
15474;SDS011;7839;50.462;9.678;2023-03-15T00:52:17;1.90;;;1.00;;
15474;SDS011;7839;50.462;9.678;2023-03-15T00:58:58;1.47;;;0.60;;
15474;SDS011;7839;50.462;9.678;2023-03-15T01:05:39;2.57;;;0.87;;
15474;SDS011;7839;50.462;9.678;2023-03-15T01:12:19;2.03;;;0.90;;
15474;SDS011;7839;50.462;9.678;2023-03-15T01:19:00;1.67;;;0.83;;
15474;SDS011;7839;50.462;9.678;2023-03-15T01:25:40;1.37;;;0.93;;
15474;SDS011;7839;50.462;9.678;2023-03-15T01:32:20;2.33;;;0.90;;
15474;SDS011;7839;50.462;9.678;2023-03-15T01:39:00;0.50;;;0.50;;
15474;SDS011;7839;50.462;9.678;2023-03-15T01:45:56;0.97;;;0.73;;
15474;SDS011;7839;50.462;9.678;2023-03-15T01:52:39;0.67;;;0.63;;
15474;SDS011;7839;50.462;9.678;2023-03-15T01:59:21;1.50;;;0.70;;
15474;SDS011;7839;50.462;9.678;2023-03-15T02:06:03;2.73;;;0.80;;
15474;SDS011;7839;50.462;9.678;2023-03-15T02:12:46;2.00;;;0.83;;
15474;SDS011;7839;50.462;9.678;2023-03-15T02:40:01;3.37;;;0.87;;
15474;SDS011;7839;50.462;9.678;2023-03-15T02:46:42;2.80;;;0.87;;
15474;SDS011;7839;50.462;9.678;2023-03-15T02:53:24;1.87;;;0.90;;
15474;SDS011;7839;50.462;9.678;2023-03-15T03:00:05;1.87;;;0.97;;
15474;SDS011;7839;50.462;9.678;2023-03-15T03:06:50;3.70;;;1.00;;
15474;SDS011;7839;50.462;9.678;2023-03-15T03:13:31;2.63;;;1.00;;
15474;SDS011;7839;50.462;9.678;2023-03-15T03:20:11;1.33;;;1.13;;
15474;SDS011;7839;50.462;9.678;2023-03-15T03:26:52;4.07;;;1.37;;
15474;SDS011;7839;50.462;9.678;2023-03-15T03:33:36;2.63;;;1.40;;
15474;SDS011;7839;50.462;9.678;2023-03-15T03:40:17;2.30;;;1.10;;
15474;SDS011;7839;50.462;9.678;2023-03-15T03:46:57;1.97;;;1.00;;
15474;SDS011;7839;50.462;9.678;2023-03-15T03:53:37;3.47;;;1.30;;
15474;SDS011;7839;50.462;9.678;2023-03-15T04:00:18;2.47;;;1.40;;
15474;SDS011;7839;50.462;9.678;2023-03-15T04:06:59;1.50;;;1.03;;
15474;SDS011;7839;50.462;9.678;2023-03-15T04:13:39;3.47;;;1.30;;
15474;SDS011;7839;50.462;9.678;2023-03-15T04:20:21;2.43;;;1.10;;
15474;SDS011;7839;50.462;9.678;2023-03-15T04:27:01;3.77;;;1.50;;
15474;SDS011;7839;50.462;9.678;2023-03-15T04:33:42;3.80;;;1.33;;
15474;SDS011;7839;50.462;9.678;2023-03-15T04:40:22;3.83;;;1.40;;
15474;SDS011;7839;50.462;9.678;2023-03-15T04:47:03;3.60;;;1.33;;
15474;SDS011;7839;50.462;9.678;2023-03-15T04:53:43;1.97;;;1.20;;
15474;SDS011;7839;50.462;9.678;2023-03-15T05:00:25;3.53;;;1.40;;
15474;SDS011;7839;50.462;9.678;2023-03-15T05:07:05;1.83;;;1.10;;
15474;SDS011;7839;50.462;9.678;2023-03-15T05:13:46;1.87;;;1.00;;
15474;SDS011;7839;50.462;9.678;2023-03-15T05:20:27;2.83;;;1.53;;
15474;SDS011;7839;50.462;9.678;2023-03-15T05:27:07;3.50;;;1.57;;
15474;SDS011;7839;50.462;9.678;2023-03-15T05:33:47;5.40;;;1.80;;
15474;SDS011;7839;50.462;9.678;2023-03-15T05:40:28;2.37;;;1.10;;
15474;SDS011;7839;50.462;9.678;2023-03-15T05:47:12;2.33;;;1.30;;
15474;SDS011;7839;50.462;9.678;2023-03-15T05:53:52;2.87;;;1.50;;
15474;SDS011;7839;50.462;9.678;2023-03-15T06:00:32;2.90;;;1.50;;
15474;SDS011;7839;50.462;9.678;2023-03-15T06:07:13;3.63;;;1.47;;
15474;SDS011;7839;50.462;9.678;2023-03-15T06:13:53;3.22;;;1.60;;
15474;SDS011;7839;50.462;9.678;2023-03-15T06:20:33;3.10;;;1.47;;
15474;SDS011;7839;50.462;9.678;2023-03-15T06:27:14;2.53;;;1.23;;
15474;SDS011;7839;50.462;9.678;2023-03-15T06:33:54;2.33;;;1.20;;
15474;SDS011;7839;50.462;9.678;2023-03-15T06:40:34;3.03;;;1.50;;
15474;SDS011;7839;50.462;9.678;2023-03-15T06:47:14;4.20;;;1.10;;
15474;SDS011;7839;50.462;9.678;2023-03-15T06:53:55;2.77;;;1.10;;
15474;SDS011;7839;50.462;9.678;2023-03-15T07:00:35;1.70;;;1.10;;
15474;SDS011;7839;50.462;9.678;2023-03-15T07:07:15;1.63;;;1.33;;
15474;SDS011;7839;50.462;9.678;2023-03-15T07:13:56;2.25;;;1.45;;
15474;SDS011;7839;50.462;9.678;2023-03-15T07:20:37;1.03;;;0.97;;
15474;SDS011;7839;50.462;9.678;2023-03-15T07:27:17;1.03;;;0.90;;
15474;SDS011;7839;50.462;9.678;2023-03-15T07:33:58;2.83;;;1.37;;
15474;SDS011;7839;50.462;9.678;2023-03-15T07:40:38;1.43;;;0.80;;
15474;SDS011;7839;50.462;9.678;2023-03-15T07:47:18;2.03;;;0.73;;
15474;SDS011;7839;50.462;9.678;2023-03-15T07:53:59;1.67;;;0.90;;
15474;SDS011;7839;50.462;9.678;2023-03-15T08:00:40;1.63;;;1.00;;
15474;SDS011;7839;50.462;9.678;2023-03-15T08:07:20;1.47;;;0.80;;
15474;SDS011;7839;50.462;9.678;2023-03-15T08:14:00;1.40;;;0.70;;
15474;SDS011;7839;50.462;9.678;2023-03-15T08:20:41;0.80;;;0.70;;
15474;SDS011;7839;50.462;9.678;2023-03-15T08:27:21;1.90;;;0.83;;
15474;SDS011;7839;50.462;9.678;2023-03-15T08:34:02;1.07;;;0.60;;
15474;SDS011;7839;50.462;9.678;2023-03-15T08:40:43;0.60;;;0.60;;
15474;SDS011;7839;50.462;9.678;2023-03-15T08:47:23;0.57;;;0.50;;
15474;SDS011;7839;50.462;9.678;2023-03-15T08:54:04;0.83;;;0.53;;
15474;SDS011;7839;50.462;9.678;2023-03-15T09:00:44;0.57;;;0.57;;
15474;SDS011;7839;50.462;9.678;2023-03-15T09:07:24;0.67;;;0.43;;
15474;SDS011;7839;50.462;9.678;2023-03-15T09:14:05;0.53;;;0.40;;
15474;SDS011;7839;50.462;9.678;2023-03-15T09:20:45;0.47;;;0.33;;
15474;SDS011;7839;50.462;9.678;2023-03-15T09:27:28;0.50;;;0.47;;
15474;SDS011;7839;50.462;9.678;2023-03-15T09:34:08;1.27;;;0.50;;
15474;SDS011;7839;50.462;9.678;2023-03-15T09:40:49;0.57;;;0.50;;
15474;SDS011;7839;50.462;9.678;2023-03-15T09:54:23;0.77;;;0.77;;
15474;SDS011;7839;50.462;9.678;2023-03-15T10:01:04;1.00;;;0.57;;
15474;SDS011;7839;50.462;9.678;2023-03-15T10:07:45;0.50;;;0.50;;
15474;SDS011;7839;50.462;9.678;2023-03-15T10:21:15;0.63;;;0.40;;
15474;SDS011;7839;50.462;9.678;2023-03-15T10:27:59;0.60;;;0.60;;
15474;SDS011;7839;50.462;9.678;2023-03-15T10:34:42;0.60;;;0.60;;
15474;SDS011;7839;50.462;9.678;2023-03-15T10:41:28;0.90;;;0.90;;
15474;SDS011;7839;50.462;9.678;2023-03-15T10:48:09;0.50;;;0.50;;
15474;SDS011;7839;50.462;9.678;2023-03-15T10:54:50;0.70;;;0.50;;
15474;SDS011;7839;50.462;9.678;2023-03-15T11:01:32;0.90;;;0.60;;
15474;SDS011;7839;50.462;9.678;2023-03-15T11:08:17;0.40;;;0.40;;
15474;SDS011;7839;50.462;9.678;2023-03-15T11:15:06;0.47;;;0.30;;
15474;SDS011;7839;50.462;9.678;2023-03-15T11:21:49;0.50;;;0.40;;
15474;SDS011;7839;50.462;9.678;2023-03-15T11:28:30;0.70;;;0.40;;
15474;SDS011;7839;50.462;9.678;2023-03-15T11:41:57;0.30;;;0.30;;
15474;SDS011;7839;50.462;9.678;2023-03-15T11:49:22;0.93;;;0.70;;
15474;SDS011;7839;50.462;9.678;2023-03-15T11:55:46;0.90;;;0.90;;
15474;SDS011;7839;50.462;9.678;2023-03-15T12:16:06;0.40;;;0.40;;
15474;SDS011;7839;50.462;9.678;2023-03-15T12:22:51;1.00;;;0.90;;
15474;SDS011;7839;50.462;9.678;2023-03-15T12:29:32;1.20;;;1.10;;
15474;SDS011;7839;50.462;9.678;2023-03-15T12:36:20;1.97;;;1.83;;
15474;SDS011;7839;50.462;9.678;2023-03-15T12:43:05;1.07;;;1.03;;
15474;SDS011;7839;50.462;9.678;2023-03-15T12:49:45;1.80;;;1.70;;
15474;SDS011;7839;50.462;9.678;2023-03-15T12:56:35;1.20;;;1.07;;
15474;SDS011;7839;50.462;9.678;2023-03-15T13:03:21;1.00;;;1.00;;
15474;SDS011;7839;50.462;9.678;2023-03-15T13:23:28;0.70;;;0.70;;
15474;SDS011;7839;50.462;9.678;2023-03-15T13:37:26;0.70;;;0.70;;
15474;SDS011;7839;50.462;9.678;2023-03-15T13:44:13;1.03;;;0.60;;
15474;SDS011;7839;50.462;9.678;2023-03-15T13:50:57;0.47;;;0.47;;
15474;SDS011;7839;50.462;9.678;2023-03-15T13:57:41;1.10;;;1.00;;
15474;SDS011;7839;50.462;9.678;2023-03-15T14:04:21;1.20;;;1.10;;
15474;SDS011;7839;50.462;9.678;2023-03-15T14:11:10;2.70;;;1.13;;
15474;SDS011;7839;50.462;9.678;2023-03-15T14:18:02;0.80;;;0.80;;
15474;SDS011;7839;50.462;9.678;2023-03-15T14:24:43;0.50;;;0.50;;
15474;SDS011;7839;50.462;9.678;2023-03-15T14:31:31;0.60;;;0.60;;
15474;SDS011;7839;50.462;9.678;2023-03-15T14:38:16;1.07;;;1.00;;
15474;SDS011;7839;50.462;9.678;2023-03-15T14:44:58;0.70;;;0.60;;
15474;SDS011;7839;50.462;9.678;2023-03-15T14:51:40;1.03;;;1.00;;
15474;SDS011;7839;50.462;9.678;2023-03-15T14:58:21;1.40;;;0.90;;
15474;SDS011;7839;50.462;9.678;2023-03-15T15:05:02;1.57;;;1.00;;
15474;SDS011;7839;50.462;9.678;2023-03-15T15:11:43;0.93;;;0.87;;
15474;SDS011;7839;50.462;9.678;2023-03-15T15:18:24;0.77;;;0.77;;
15474;SDS011;7839;50.462;9.678;2023-03-15T15:25:23;0.97;;;0.70;;
15474;SDS011;7839;50.462;9.678;2023-03-15T15:32:03;0.70;;;0.70;;
15474;SDS011;7839;50.462;9.678;2023-03-15T15:38:46;0.50;;;0.50;;
15474;SDS011;7839;50.462;9.678;2023-03-15T15:45:27;0.60;;;0.60;;
15474;SDS011;7839;50.462;9.678;2023-03-15T15:52:09;0.47;;;0.40;;
15474;SDS011;7839;50.462;9.678;2023-03-15T15:58:51;0.67;;;0.57;;
15474;SDS011;7839;50.462;9.678;2023-03-15T16:05:31;0.47;;;0.47;;
15474;SDS011;7839;50.462;9.678;2023-03-15T16:12:12;0.80;;;0.60;;
15474;SDS011;7839;50.462;9.678;2023-03-15T16:18:53;0.50;;;0.50;;
15474;SDS011;7839;50.462;9.678;2023-03-15T16:25:34;0.30;;;0.30;;
15474;SDS011;7839;50.462;9.678;2023-03-15T16:32:17;0.87;;;0.60;;
15474;SDS011;7839;50.462;9.678;2023-03-15T16:38:58;0.50;;;0.50;;
15474;SDS011;7839;50.462;9.678;2023-03-15T16:45:39;0.50;;;0.50;;
15474;SDS011;7839;50.462;9.678;2023-03-15T16:52:20;0.80;;;0.40;;
15474;SDS011;7839;50.462;9.678;2023-03-15T16:59:01;0.60;;;0.40;;
15474;SDS011;7839;50.462;9.678;2023-03-15T17:05:43;0.50;;;0.50;;
15474;SDS011;7839;50.462;9.678;2023-03-15T17:12:24;0.50;;;0.50;;
15474;SDS011;7839;50.462;9.678;2023-03-15T17:19:09;0.70;;;0.70;;
15474;SDS011;7839;50.462;9.678;2023-03-15T17:25:50;0.20;;;0.20;;
15474;SDS011;7839;50.462;9.678;2023-03-15T17:32:30;0.60;;;0.60;;
15474;SDS011;7839;50.462;9.678;2023-03-15T17:39:16;0.97;;;0.53;;
15474;SDS011;7839;50.462;9.678;2023-03-15T17:45:58;0.33;;;0.33;;
15474;SDS011;7839;50.462;9.678;2023-03-15T17:52:38;0.47;;;0.47;;
15474;SDS011;7839;50.462;9.678;2023-03-15T17:59:20;0.30;;;0.30;;
15474;SDS011;7839;50.462;9.678;2023-03-15T18:06:00;0.60;;;0.60;;
15474;SDS011;7839;50.462;9.678;2023-03-15T18:12:44;0.70;;;0.70;;
15474;SDS011;7839;50.462;9.678;2023-03-15T18:19:25;0.90;;;0.90;;
15474;SDS011;7839;50.462;9.678;2023-03-15T18:26:06;1.47;;;1.10;;
15474;SDS011;7839;50.462;9.678;2023-03-15T18:32:49;1.87;;;1.60;;
15474;SDS011;7839;50.462;9.678;2023-03-15T18:39:30;1.37;;;1.27;;
15474;SDS011;7839;50.462;9.678;2023-03-15T18:46:11;1.37;;;1.27;;
15474;SDS011;7839;50.462;9.678;2023-03-15T18:52:51;2.47;;;1.20;;
15474;SDS011;7839;50.462;9.678;2023-03-15T18:59:31;1.00;;;0.87;;
15474;SDS011;7839;50.462;9.678;2023-03-15T19:06:13;1.03;;;0.97;;
15474;SDS011;7839;50.462;9.678;2023-03-15T19:12:53;1.00;;;0.90;;
15474;SDS011;7839;50.462;9.678;2023-03-15T19:19:33;1.10;;;1.00;;
15474;SDS011;7839;50.462;9.678;2023-03-15T19:26:14;0.80;;;0.80;;
15474;SDS011;7839;50.462;9.678;2023-03-15T19:32:54;1.07;;;0.97;;
15474;SDS011;7839;50.462;9.678;2023-03-15T19:39:34;1.10;;;0.70;;
15474;SDS011;7839;50.462;9.678;2023-03-15T19:46:14;0.97;;;0.87;;
15474;SDS011;7839;50.462;9.678;2023-03-15T19:52:56;0.77;;;0.77;;
15474;SDS011;7839;50.462;9.678;2023-03-15T19:59:37;0.90;;;0.70;;
15474;SDS011;7839;50.462;9.678;2023-03-15T20:06:20;1.00;;;0.80;;
15474;SDS011;7839;50.462;9.678;2023-03-15T20:13:00;0.40;;;0.40;;
15474;SDS011;7839;50.462;9.678;2023-03-15T20:19:41;0.67;;;0.67;;
15474;SDS011;7839;50.462;9.678;2023-03-15T20:26:21;0.50;;;0.50;;
15474;SDS011;7839;50.462;9.678;2023-03-15T20:33:05;0.40;;;0.40;;
15474;SDS011;7839;50.462;9.678;2023-03-15T20:39:46;0.50;;;0.40;;
15474;SDS011;7839;50.462;9.678;2023-03-15T20:46:26;0.40;;;0.40;;
15474;SDS011;7839;50.462;9.678;2023-03-15T20:53:08;0.67;;;0.50;;
15474;SDS011;7839;50.462;9.678;2023-03-15T20:59:48;0.40;;;0.40;;
15474;SDS011;7839;50.462;9.678;2023-03-15T21:06:28;0.37;;;0.37;;
15474;SDS011;7839;50.462;9.678;2023-03-15T21:13:09;0.87;;;0.57;;
15474;SDS011;7839;50.462;9.678;2023-03-15T21:19:50;0.90;;;0.23;;
15474;SDS011;7839;50.462;9.678;2023-03-15T21:26:30;0.47;;;0.40;;
15474;SDS011;7839;50.462;9.678;2023-03-15T21:33:11;0.27;;;0.27;;
15474;SDS011;7839;50.462;9.678;2023-03-15T21:39:52;1.30;;;0.33;;
15474;SDS011;7839;50.462;9.678;2023-03-15T21:46:33;0.43;;;0.43;;
15474;SDS011;7839;50.462;9.678;2023-03-15T21:53:13;0.47;;;0.40;;
15474;SDS011;7839;50.462;9.678;2023-03-15T21:59:54;0.87;;;0.67;;
15474;SDS011;7839;50.462;9.678;2023-03-15T22:06:34;0.33;;;0.33;;
15474;SDS011;7839;50.462;9.678;2023-03-15T22:13:15;0.50;;;0.50;;
15474;SDS011;7839;50.462;9.678;2023-03-15T22:19:55;0.43;;;0.43;;
15474;SDS011;7839;50.462;9.678;2023-03-15T22:26:35;0.40;;;0.40;;
15474;SDS011;7839;50.462;9.678;2023-03-15T22:33:16;0.40;;;0.40;;
15474;SDS011;7839;50.462;9.678;2023-03-15T22:39:57;0.50;;;0.50;;
15474;SDS011;7839;50.462;9.678;2023-03-15T22:46:37;0.53;;;0.40;;
15474;SDS011;7839;50.462;9.678;2023-03-15T22:53:17;0.60;;;0.60;;
15474;SDS011;7839;50.462;9.678;2023-03-15T22:59:57;0.20;;;0.20;;
15474;SDS011;7839;50.462;9.678;2023-03-15T23:06:38;0.40;;;0.40;;
15474;SDS011;7839;50.462;9.678;2023-03-15T23:13:18;0.50;;;0.50;;
15474;SDS011;7839;50.462;9.678;2023-03-15T23:19:58;0.20;;;0.20;;
15474;SDS011;7839;50.462;9.678;2023-03-15T23:26:38;0.40;;;0.40;;
15474;SDS011;7839;50.462;9.678;2023-03-15T23:33:19;0.30;;;0.30;;
15474;SDS011;7839;50.462;9.678;2023-03-15T23:39:59;0.30;;;0.30;;
15474;SDS011;7839;50.462;9.678;2023-03-15T23:46:40;0.47;;;0.47;;
15474;SDS011;7839;50.462;9.678;2023-03-15T23:53:21;0.20;;;0.20;;
